createdAt,value
2023-07-14T00:00:04.164Z,20.1900
2023-07-14T00:01:06.480Z,20.1600
2023-07-14T00:02:08.899Z,20.1500
2023-07-14T00:03:11.130Z,20.1600
2023-07-14T00:04:13.459Z,20.1800
2023-07-14T00:05:15.719Z,20.1900
2023-07-14T00:06:18.021Z,20.2100
2023-07-14T00:07:18.151Z,20.2200
2023-07-14T00:08:18.267Z,20.2000
2023-07-14T00:09:20.571Z,20.1800
2023-07-14T00:10:22.868Z,20.1800
2023-07-14T00:11:25.139Z,20.1700
2023-07-14T00:12:27.342Z,20.1800
2023-07-14T00:13:29.539Z,20.1600
2023-07-14T00:14:31.788Z,20.1500
2023-07-14T00:15:31.906Z,20.1400
2023-07-14T00:16:34.178Z,20.1400
2023-07-14T00:17:36.494Z,20.1500
2023-07-14T00:18:38.630Z,20.1500
2023-07-14T00:19:40.835Z,20.1300
2023-07-14T00:20:43.099Z,20.1100
2023-07-14T00:21:45.385Z,20.1000
2023-07-14T00:22:47.642Z,20.1100
2023-07-14T00:23:49.869Z,20.1100
2023-07-14T00:24:49.979Z,20.1100
2023-07-14T00:25:52.264Z,20.1100
2023-07-14T00:26:54.513Z,20.1100
2023-07-14T00:27:56.809Z,20.1100
2023-07-14T00:28:59.033Z,20.0800
2023-07-14T00:30:01.312Z,20.0500
2023-07-14T00:31:03.587Z,20.0000
2023-07-14T00:32:05.946Z,19.9700
2023-07-14T00:33:06.147Z,19.9500
2023-07-14T00:34:08.356Z,19.9500
2023-07-14T00:35:10.656Z,19.9400
2023-07-14T00:36:12.972Z,19.9200
2023-07-14T00:37:15.319Z,19.9200
2023-07-14T00:38:17.655Z,19.9100
2023-07-14T00:39:17.822Z,19.9100
2023-07-14T00:40:20.139Z,19.9300
2023-07-14T00:41:22.534Z,19.9500
2023-07-14T00:42:24.802Z,19.9500
2023-07-14T00:43:27.108Z,19.9300
2023-07-14T00:44:29.358Z,19.8900
2023-07-14T00:45:29.516Z,19.8800
2023-07-14T00:46:32.038Z,19.8700
2023-07-14T00:47:34.167Z,19.8600
2023-07-14T00:48:36.481Z,19.8600
2023-07-14T00:49:38.764Z,19.8600
2023-07-14T00:50:41.091Z,19.8400
2023-07-14T00:51:41.266Z,19.8300
2023-07-14T00:52:43.585Z,19.8300
2023-07-14T00:53:45.886Z,19.8200
2023-07-14T00:54:48.199Z,19.8200
2023-07-14T00:55:50.499Z,19.8200
2023-07-14T00:56:52.806Z,19.8300
2023-07-14T00:57:52.895Z,19.8200
2023-07-14T00:58:55.236Z,19.7700
2023-07-14T00:59:57.468Z,19.7500
2023-07-14T01:00:59.738Z,19.7400
2023-07-14T01:02:02.210Z,19.7400
2023-07-14T01:03:04.364Z,19.7400
2023-07-14T01:04:06.587Z,19.7400
2023-07-14T01:05:08.914Z,19.7300
2023-07-14T01:06:08.950Z,19.7300
2023-07-14T01:07:11.231Z,19.7400
2023-07-14T01:08:13.531Z,19.7600
2023-07-14T01:09:15.742Z,19.7600
2023-07-14T01:10:17.978Z,19.7700
2023-07-14T01:11:20.244Z,19.7600
2023-07-14T01:12:22.495Z,19.7400
2023-07-14T01:13:24.793Z,19.7200
2023-07-14T01:14:27.037Z,19.6900
2023-07-14T01:15:27.152Z,19.6600
2023-07-14T01:16:27.325Z,19.6400
2023-07-14T01:17:29.620Z,19.6200
2023-07-14T01:18:31.837Z,19.6000
2023-07-14T01:19:34.151Z,19.5900
2023-07-14T01:20:36.404Z,19.6100
2023-07-14T01:21:36.528Z,19.6800
2023-07-14T01:22:38.870Z,19.7700
2023-07-14T01:23:41.063Z,19.8900
2023-07-14T01:24:43.323Z,20.0100
2023-07-14T01:25:45.558Z,20.1300
2023-07-14T01:26:47.795Z,20.2400
2023-07-14T01:27:50.012Z,20.3400
2023-07-14T01:28:52.210Z,20.4400
2023-07-14T01:29:54.481Z,20.5300
2023-07-14T01:30:56.720Z,20.6200
2023-07-14T01:31:59.072Z,20.6900
2023-07-14T01:32:59.094Z,20.7600
2023-07-14T01:34:01.310Z,20.8200
2023-07-14T01:35:03.585Z,20.8700
2023-07-14T01:36:05.803Z,20.9100
2023-07-14T01:37:09.081Z,20.9600
2023-07-14T01:38:10.198Z,20.9900
2023-07-14T01:39:12.395Z,21.0300
2023-07-14T01:40:14.556Z,21.0600
2023-07-14T01:41:16.784Z,21.0900
2023-07-14T01:42:19.056Z,21.1200
2023-07-14T01:43:21.371Z,21.1400
2023-07-14T01:44:21.441Z,21.1700
2023-07-14T01:45:23.726Z,21.2000
2023-07-14T01:46:26.006Z,21.2100
2023-07-14T01:47:28.297Z,21.2300
2023-07-14T01:48:30.559Z,21.2500
2023-07-14T01:49:32.856Z,21.2800
2023-07-14T01:50:35.137Z,21.2900
2023-07-14T01:51:35.247Z,21.3100
2023-07-14T01:52:37.499Z,21.3200
2023-07-14T01:53:39.701Z,21.3400
2023-07-14T01:54:41.943Z,21.3500
2023-07-14T01:55:44.186Z,21.3700
2023-07-14T01:56:46.409Z,21.3900
2023-07-14T01:57:48.693Z,21.4000
2023-07-14T01:58:50.933Z,21.4100
2023-07-14T01:59:53.172Z,21.4300
2023-07-14T02:00:55.449Z,21.4300
2023-07-14T02:01:57.620Z,21.4500
2023-07-14T02:02:59.855Z,21.4600
2023-07-14T02:03:59.886Z,21.4700
2023-07-14T02:05:02.081Z,21.4700
2023-07-14T02:06:04.333Z,21.4800
2023-07-14T02:07:06.543Z,21.4900
2023-07-14T02:08:08.760Z,21.5000
2023-07-14T02:09:10.996Z,21.5100
2023-07-14T02:10:13.205Z,21.5200
2023-07-14T02:11:15.441Z,21.5300
2023-07-14T02:12:17.617Z,21.5300
2023-07-14T02:13:19.827Z,21.5400
2023-07-14T02:14:22.061Z,21.5500
2023-07-14T02:15:24.304Z,21.5500
2023-07-14T02:16:26.490Z,21.5600
2023-07-14T02:17:28.733Z,21.5700
2023-07-14T02:18:28.749Z,21.5800
2023-07-14T02:19:30.926Z,21.5900
2023-07-14T02:20:33.112Z,21.6000
2023-07-14T02:21:35.356Z,21.6100
2023-07-14T02:22:37.536Z,21.6200
2023-07-14T02:23:39.753Z,21.6300
2023-07-14T02:24:41.969Z,21.6400
2023-07-14T02:25:44.255Z,21.6400
2023-07-14T02:26:46.504Z,21.6500
2023-07-14T02:27:48.768Z,21.6500
2023-07-14T02:28:51.021Z,21.6500
2023-07-14T02:29:51.098Z,21.6500
2023-07-14T02:30:53.385Z,21.6600
2023-07-14T02:31:55.604Z,21.6600
2023-07-14T02:32:57.866Z,21.6600
2023-07-14T02:34:00.046Z,21.6700
2023-07-14T02:35:02.325Z,21.6800
2023-07-14T02:36:04.594Z,21.6900
2023-07-14T02:37:06.905Z,21.6900
2023-07-14T02:38:09.123Z,21.7000
2023-07-14T02:39:11.311Z,21.7100
2023-07-14T02:40:13.546Z,21.7200
2023-07-14T02:41:13.833Z,21.7200
2023-07-14T02:42:15.820Z,21.7200
2023-07-14T02:43:18.014Z,21.7300
2023-07-14T02:44:20.165Z,21.7300
2023-07-14T02:45:22.310Z,21.7400
2023-07-14T02:47:11.914Z,21.7200
2023-07-14T02:48:14.116Z,21.7400
2023-07-14T02:49:16.245Z,21.7600
2023-07-14T02:50:18.489Z,21.7700
2023-07-14T02:51:18.535Z,21.7700
2023-07-14T02:52:20.746Z,21.7700
2023-07-14T02:53:22.983Z,21.7800
2023-07-14T02:54:25.233Z,21.7800
2023-07-14T02:55:27.480Z,21.7900
2023-07-14T02:56:29.740Z,21.7900
2023-07-14T02:57:31.913Z,21.7900
2023-07-14T02:58:34.214Z,21.8000
2023-07-14T02:59:36.332Z,21.8100
2023-07-14T03:00:38.458Z,21.8300
2023-07-14T03:01:40.731Z,21.8400
2023-07-14T03:02:42.931Z,21.8500
2023-07-14T03:03:45.214Z,21.8600
2023-07-14T03:04:47.297Z,21.8600
2023-07-14T03:05:49.520Z,21.8700
2023-07-14T03:06:49.590Z,21.8800
2023-07-14T03:07:51.763Z,21.8800
2023-07-14T03:08:53.996Z,21.8900
2023-07-14T03:09:56.133Z,21.9000
2023-07-14T03:10:58.345Z,21.9000
2023-07-14T03:12:00.547Z,21.9100
2023-07-14T03:13:02.717Z,21.9100
2023-07-14T03:14:04.943Z,21.9200
2023-07-14T03:15:07.083Z,21.9300
2023-07-14T03:16:09.300Z,21.9400
2023-07-14T03:17:11.447Z,21.9400
2023-07-14T03:18:13.639Z,21.9500
2023-07-14T03:19:15.826Z,21.9500
2023-07-14T03:20:17.907Z,21.9500
2023-07-14T03:21:20.051Z,21.9600
2023-07-14T03:22:22.203Z,21.9500
2023-07-14T03:23:24.303Z,21.9600
2023-07-14T03:24:26.517Z,21.9600
2023-07-14T03:25:28.607Z,21.9600
2023-07-14T03:26:28.584Z,21.9600
2023-07-14T03:27:30.751Z,21.9600
2023-07-14T03:28:32.941Z,21.9600
2023-07-14T03:29:35.158Z,21.9700
2023-07-14T03:30:37.332Z,21.9700
2023-07-14T03:31:39.570Z,21.9800
2023-07-14T03:32:41.751Z,21.9800
2023-07-14T03:33:43.958Z,21.9800
2023-07-14T03:34:46.174Z,21.9800
2023-07-14T03:35:48.325Z,21.9800
2023-07-14T03:36:50.510Z,21.9900
2023-07-14T03:37:52.751Z,21.9900
2023-07-14T03:38:54.979Z,22.0000
2023-07-14T03:39:57.242Z,22.0100
2023-07-14T03:40:59.427Z,22.0100
2023-07-14T03:42:01.659Z,22.0100
2023-07-14T03:43:01.756Z,22.0100
2023-07-14T03:44:03.937Z,22.0200
2023-07-14T03:45:06.201Z,22.0100
2023-07-14T03:46:08.454Z,22.0100
2023-07-14T03:47:10.572Z,22.0200
2023-07-14T03:48:12.811Z,22.0100
2023-07-14T03:49:15.063Z,22.0200
2023-07-14T03:50:17.459Z,22.0400
2023-07-14T03:51:19.547Z,22.0300
2023-07-14T03:52:21.765Z,22.0400
2023-07-14T03:53:24.001Z,22.0400
2023-07-14T03:54:26.189Z,22.0400
2023-07-14T03:55:26.262Z,22.0400
2023-07-14T03:56:28.495Z,22.0400
2023-07-14T03:57:30.704Z,22.0400
2023-07-14T03:58:32.952Z,22.0400
2023-07-14T03:59:35.119Z,22.0400
2023-07-14T04:00:37.304Z,22.0400
2023-07-14T04:01:39.497Z,22.0500
2023-07-14T04:02:41.731Z,22.0500
2023-07-14T04:03:43.904Z,22.0500
2023-07-14T04:04:46.029Z,22.0500
2023-07-14T04:05:48.319Z,22.0600
2023-07-14T04:06:50.389Z,22.0600
2023-07-14T04:07:52.530Z,22.0600
2023-07-14T04:08:54.741Z,22.0600
2023-07-14T04:09:56.936Z,22.0800
2023-07-14T04:10:59.156Z,22.0800
2023-07-14T04:12:01.319Z,22.0700
2023-07-14T04:13:03.506Z,22.0700
2023-07-14T04:14:05.713Z,22.0800
2023-07-14T04:15:09.900Z,22.0800
2023-07-14T04:16:10.230Z,22.0800
2023-07-14T04:17:10.177Z,22.0600
2023-07-14T04:18:12.416Z,22.0300
2023-07-14T04:19:14.602Z,22.0000
2023-07-14T04:20:16.783Z,21.9800
2023-07-14T04:21:19.003Z,21.9600
2023-07-14T04:22:24.491Z,21.9500
2023-07-14T04:23:23.522Z,21.9300
2023-07-14T04:24:25.564Z,21.9400
2023-07-14T04:25:27.786Z,21.9400
2023-07-14T04:26:29.995Z,21.9400
2023-07-14T04:27:32.147Z,21.9500
2023-07-14T04:28:34.322Z,21.9500
2023-07-14T04:29:36.613Z,21.9300
2023-07-14T04:30:38.774Z,21.8600
2023-07-14T04:31:38.900Z,21.6800
2023-07-14T04:32:41.055Z,21.4500
2023-07-14T04:33:43.188Z,21.2400
2023-07-14T04:34:45.433Z,21.0300
2023-07-14T04:35:47.685Z,20.8500
2023-07-14T04:36:49.980Z,20.7000
2023-07-14T04:37:52.206Z,20.5700
2023-07-14T04:38:54.401Z,20.4600
2023-07-14T04:39:56.669Z,20.3500
2023-07-14T04:40:58.943Z,20.2500
2023-07-14T04:42:01.238Z,20.1700
2023-07-14T04:43:01.412Z,20.1100
2023-07-14T04:44:03.693Z,20.0600
2023-07-14T04:45:06.030Z,20.0200
2023-07-14T04:46:08.378Z,20.0000
2023-07-14T04:47:10.534Z,19.9700
2023-07-14T04:48:12.764Z,19.9500
2023-07-14T04:49:15.069Z,19.9300
2023-07-14T04:50:15.202Z,19.9200
2023-07-14T04:51:17.494Z,19.9200
2023-07-14T04:52:19.829Z,19.9300
2023-07-14T04:53:22.058Z,19.9300
2023-07-14T04:54:24.330Z,19.9400
2023-07-14T04:55:26.554Z,19.9400
2023-07-14T04:56:28.852Z,19.9400
2023-07-14T04:57:31.138Z,19.9400
2023-07-14T04:58:33.378Z,19.9300
2023-07-14T04:59:35.653Z,19.9400
2023-07-14T05:00:37.893Z,19.9500
2023-07-14T05:01:40.115Z,19.9500
2023-07-14T05:02:42.409Z,19.9400
2023-07-14T05:03:44.663Z,19.9500
2023-07-14T05:05:00.827Z,19.9300
2023-07-14T05:05:49.125Z,19.9200
2023-07-14T05:06:49.258Z,19.9200
2023-07-14T05:07:51.641Z,19.9300
2023-07-14T05:08:53.761Z,19.9500
2023-07-14T05:09:56.071Z,19.9500
2023-07-14T05:10:58.384Z,19.9500
2023-07-14T05:12:00.699Z,19.9600
2023-07-14T05:13:03.120Z,19.9700
2023-07-14T05:14:03.152Z,19.9600
2023-07-14T05:15:05.481Z,19.9500
2023-07-14T05:17:31.791Z,19.9000
2023-07-14T05:18:34.046Z,19.9100
2023-07-14T05:19:36.213Z,19.9100
2023-07-14T05:20:38.491Z,19.9200
2023-07-14T05:21:38.608Z,19.9400
2023-07-14T05:22:40.877Z,19.9600
2023-07-14T05:23:43.102Z,19.9700
2023-07-14T05:24:45.303Z,19.9800
2023-07-14T05:25:47.545Z,20.0000
2023-07-14T05:26:49.777Z,20.0100
2023-07-14T05:27:52.017Z,20.0300
2023-07-14T05:28:54.273Z,20.0400
2023-07-14T05:29:56.500Z,20.0500
2023-07-14T05:30:56.604Z,20.0600
2023-07-14T05:31:58.738Z,20.0700
2023-07-14T05:33:01.036Z,20.0700
2023-07-14T05:34:03.170Z,20.0500
2023-07-14T05:35:05.324Z,20.0400
2023-07-14T05:36:07.551Z,20.0300
2023-07-14T05:37:09.692Z,20.0100
2023-07-14T05:38:11.901Z,20.0000
2023-07-14T05:39:14.195Z,20.0000
2023-07-14T05:40:16.419Z,20.0100
2023-07-14T05:41:18.660Z,20.0100
2023-07-14T05:42:20.913Z,20.0300
2023-07-14T05:43:23.158Z,20.0300
2023-07-14T05:44:25.409Z,20.0300
2023-07-14T05:45:25.474Z,20.0400
2023-07-14T05:46:28.272Z,20.0400
2023-07-14T05:47:30.054Z,20.0400
2023-07-14T05:48:32.280Z,20.0400
2023-07-14T05:49:34.543Z,20.0500
2023-07-14T05:50:36.813Z,20.0500
2023-07-14T05:51:39.036Z,20.0500
2023-07-14T05:52:41.238Z,20.0500
2023-07-14T05:53:43.490Z,20.1000
2023-07-14T05:54:43.722Z,20.1700
2023-07-14T05:55:45.795Z,20.2700
2023-07-14T05:56:48.026Z,20.3600
2023-07-14T05:57:50.271Z,20.4600
2023-07-14T05:58:52.512Z,20.5500
2023-07-14T05:59:54.770Z,20.6300
2023-07-14T06:00:57.069Z,20.7000
2023-07-14T06:01:59.262Z,20.7600
2023-07-14T06:03:01.584Z,20.8200
2023-07-14T06:04:03.999Z,20.8700
2023-07-14T06:05:03.997Z,20.9100
2023-07-14T06:06:06.270Z,20.9600
2023-07-14T06:07:08.554Z,20.9900
2023-07-14T06:08:10.807Z,21.0300
2023-07-14T06:09:13.093Z,21.0600
2023-07-14T06:10:15.365Z,21.0900
2023-07-14T06:11:17.618Z,21.1100
2023-07-14T06:12:17.743Z,21.1400
2023-07-14T06:13:19.980Z,21.1600
2023-07-14T06:14:23.806Z,21.1800
2023-07-14T06:15:24.472Z,21.2000
2023-07-14T06:16:26.736Z,21.2300
2023-07-14T06:17:29.068Z,21.2500
2023-07-14T06:18:31.270Z,21.2700
2023-07-14T06:19:33.541Z,21.2800
2023-07-14T06:20:35.811Z,21.2900
2023-07-14T06:21:35.888Z,21.3100
2023-07-14T06:22:38.141Z,21.3200
2023-07-14T06:23:40.343Z,21.3500
2023-07-14T06:24:42.587Z,21.3600
2023-07-14T06:25:45.005Z,21.3800
2023-07-14T06:26:47.117Z,21.3900
2023-07-14T06:27:49.389Z,21.4000
2023-07-14T06:28:51.655Z,21.4100
2023-07-14T06:29:51.788Z,21.4100
2023-07-14T06:30:54.148Z,21.4300
2023-07-14T06:31:56.351Z,21.4300
2023-07-14T06:32:58.643Z,21.4500
2023-07-14T06:34:00.911Z,21.4500
2023-07-14T06:35:03.213Z,21.4700
2023-07-14T06:36:05.438Z,21.4800
2023-07-14T06:37:07.618Z,21.5000
2023-07-14T06:38:09.869Z,21.5100
2023-07-14T06:39:12.071Z,21.5100
2023-07-14T06:40:46.824Z,21.4900
2023-07-14T06:41:49.007Z,21.5000
2023-07-14T06:42:51.195Z,21.5300
2023-07-14T06:43:53.401Z,21.5400
2023-07-14T06:44:55.564Z,21.5500
2023-07-14T06:45:57.740Z,21.5700
2023-07-14T06:47:00.095Z,21.5800
2023-07-14T06:48:02.117Z,21.5900
2023-07-14T06:49:19.197Z,21.6000
2023-07-14T06:50:04.256Z,21.5900
2023-07-14T06:51:06.474Z,21.6100
2023-07-14T06:52:08.596Z,21.6200
2023-07-14T06:53:10.750Z,21.6200
2023-07-14T06:54:12.961Z,21.6300
2023-07-14T06:55:15.165Z,21.6400
2023-07-14T06:56:17.287Z,21.6500
2023-07-14T06:57:17.366Z,21.6600
2023-07-14T06:58:19.544Z,21.6700
2023-07-14T06:59:21.754Z,21.6700
2023-07-14T07:00:23.931Z,21.6800
2023-07-14T07:01:26.164Z,21.6900
2023-07-14T07:02:28.347Z,21.7000
2023-07-14T07:03:30.519Z,21.7100
2023-07-14T07:04:32.676Z,21.7300
2023-07-14T07:05:34.918Z,21.7300
2023-07-14T07:06:37.152Z,21.7400
2023-07-14T07:07:39.359Z,21.7600
2023-07-14T07:08:41.442Z,21.7700
2023-07-14T07:09:43.641Z,21.7800
2023-07-14T07:10:45.840Z,21.7800
2023-07-14T07:11:48.082Z,21.7800
2023-07-14T07:12:48.154Z,21.7800
2023-07-14T07:13:50.320Z,21.7900
2023-07-14T07:14:52.518Z,21.8000
2023-07-14T07:15:54.742Z,21.8000
2023-07-14T07:16:56.992Z,21.8100
2023-07-14T07:17:59.239Z,21.8200
2023-07-14T07:19:01.369Z,21.8200
2023-07-14T07:20:03.581Z,21.8300
2023-07-14T07:21:05.787Z,21.8400
2023-07-14T07:22:08.023Z,21.8500
2023-07-14T07:23:10.255Z,21.8600
2023-07-14T07:24:12.370Z,21.8700
2023-07-14T07:25:14.559Z,21.8800
2023-07-14T07:26:16.771Z,21.8900
2023-07-14T07:27:18.983Z,21.8900
2023-07-14T07:28:21.237Z,21.9000
2023-07-14T07:29:21.277Z,21.9000
2023-07-14T07:30:23.523Z,21.9100
2023-07-14T07:31:25.762Z,21.9300
2023-07-14T07:32:28.049Z,21.9300
2023-07-14T07:33:30.221Z,21.9400
2023-07-14T07:34:32.437Z,21.9500
2023-07-14T07:35:34.654Z,21.9500
2023-07-14T07:36:36.902Z,21.9600
2023-07-14T07:37:39.129Z,21.9600
2023-07-14T07:38:41.310Z,21.9700
2023-07-14T07:39:43.451Z,21.9800
2023-07-14T07:40:45.615Z,21.9800
2023-07-14T07:41:47.794Z,21.9900
2023-07-14T07:42:50.108Z,22.0000
2023-07-14T07:43:50.108Z,22.0000
2023-07-14T07:44:52.333Z,22.0100
2023-07-14T07:45:54.621Z,22.0200
2023-07-14T07:46:56.850Z,22.0200
2023-07-14T07:47:59.167Z,22.0300
2023-07-14T07:49:01.481Z,22.0300
2023-07-14T07:50:03.615Z,22.0400
2023-07-14T07:51:05.886Z,22.0400
2023-07-14T07:52:08.085Z,22.0400
2023-07-14T07:53:10.337Z,22.0400
2023-07-14T07:54:10.434Z,22.0500
2023-07-14T07:55:12.584Z,22.0500
2023-07-14T07:56:14.945Z,22.0600
2023-07-14T07:57:16.948Z,22.0700
2023-07-14T07:58:19.131Z,22.0900
2023-07-14T07:59:21.372Z,22.0900
2023-07-14T08:00:23.549Z,22.0900
2023-07-14T08:01:25.831Z,22.1000
2023-07-14T08:02:28.072Z,22.1000
2023-07-14T08:03:30.388Z,22.1100
2023-07-14T08:04:32.483Z,22.1100
2023-07-14T08:05:34.664Z,22.1200
2023-07-14T08:06:36.903Z,22.1200
2023-07-14T08:07:39.151Z,22.1300
2023-07-14T08:08:41.408Z,22.1400
2023-07-14T08:09:41.544Z,22.1500
2023-07-14T08:10:43.696Z,22.1600
2023-07-14T08:11:45.924Z,22.1600
2023-07-14T08:12:48.142Z,22.1700
2023-07-14T08:13:50.299Z,22.1800
2023-07-14T08:14:52.560Z,22.1900
2023-07-14T08:15:54.795Z,22.2000
2023-07-14T08:16:56.954Z,22.2100
2023-07-14T08:17:59.185Z,22.2100
2023-07-14T08:19:01.407Z,22.2200
2023-07-14T08:20:03.625Z,22.2300
2023-07-14T08:21:05.848Z,22.2300
2023-07-14T08:22:05.967Z,22.2400
2023-07-14T08:23:08.277Z,22.2500
2023-07-14T08:24:10.557Z,22.2500
2023-07-14T08:25:12.734Z,22.2500
2023-07-14T08:26:15.285Z,22.2600
2023-07-14T08:27:17.176Z,22.2700
2023-07-14T08:28:19.424Z,22.2800
2023-07-14T08:29:21.644Z,22.2800
2023-07-14T08:30:23.890Z,22.3000
2023-07-14T08:31:26.135Z,22.3000
2023-07-14T08:32:28.354Z,22.3000
2023-07-14T08:33:30.547Z,22.3100
2023-07-14T08:34:30.549Z,22.3100
2023-07-14T08:35:32.769Z,22.3200
2023-07-14T08:36:34.942Z,22.3200
2023-07-14T08:37:37.168Z,22.3300
2023-07-14T08:38:39.447Z,22.3300
2023-07-14T08:39:41.739Z,22.3400
2023-07-14T08:40:43.957Z,22.3400
2023-07-14T08:41:46.183Z,22.3500
2023-07-14T08:42:48.457Z,22.3600
2023-07-14T08:43:50.675Z,22.3600
2023-07-14T08:44:52.909Z,22.3600
2023-07-14T08:45:53.077Z,22.3700
2023-07-14T08:46:55.320Z,22.3800
2023-07-14T08:47:57.650Z,22.3900
2023-07-14T08:48:59.808Z,22.4000
2023-07-14T08:50:02.032Z,22.4100
2023-07-14T08:51:04.327Z,22.4100
2023-07-14T08:52:06.522Z,22.4100
2023-07-14T08:53:08.754Z,22.4100
2023-07-14T08:54:11.011Z,22.4200
2023-07-14T08:55:11.153Z,22.4200
2023-07-14T08:56:13.577Z,22.4300
2023-07-14T08:57:15.681Z,22.4400
2023-07-14T08:58:17.933Z,22.4500
2023-07-14T08:59:20.254Z,22.4500
2023-07-14T09:00:22.524Z,22.4600
2023-07-14T09:01:24.874Z,22.4600
2023-07-14T09:02:27.065Z,22.4700
2023-07-14T09:03:27.130Z,22.4800
2023-07-14T09:04:29.363Z,22.4800
2023-07-14T09:05:31.627Z,22.4900
2023-07-14T09:06:33.897Z,22.4900
2023-07-14T09:07:36.124Z,22.5000
2023-07-14T09:08:38.353Z,22.5100
2023-07-14T09:09:40.649Z,22.5100
2023-07-14T09:10:42.925Z,22.5100
2023-07-14T09:11:45.237Z,22.5200
2023-07-14T09:12:45.339Z,22.5200
2023-07-14T09:13:47.570Z,22.5300
2023-07-14T09:14:49.780Z,22.5300
2023-07-14T09:15:52.113Z,22.5400
2023-07-14T09:16:54.436Z,22.5500
2023-07-14T09:17:56.674Z,22.5500
2023-07-14T09:18:56.786Z,22.5600
2023-07-14T09:19:59.049Z,22.5600
2023-07-14T09:20:59.148Z,22.5700
2023-07-14T09:22:01.426Z,22.5800
2023-07-14T09:23:03.678Z,22.5900
2023-07-14T09:24:05.904Z,22.5900
2023-07-14T09:25:08.116Z,22.6000
2023-07-14T09:26:10.458Z,22.6000
2023-07-14T09:28:38.487Z,22.5800
2023-07-14T09:29:40.523Z,22.6000
2023-07-14T09:30:42.621Z,22.6200
2023-07-14T09:31:43.762Z,22.6200
2023-07-14T09:32:44.803Z,22.6200
2023-07-14T09:33:46.996Z,22.6300
2023-07-14T09:34:49.141Z,22.6400
2023-07-14T09:35:51.301Z,22.6500
2023-07-14T09:36:53.442Z,22.6500
2023-07-14T09:37:55.601Z,22.6500
2023-07-14T09:38:57.773Z,22.6600
2023-07-14T09:39:59.931Z,22.6600
2023-07-14T09:41:02.090Z,22.6700
2023-07-14T09:42:04.327Z,22.6700
2023-07-14T09:43:06.384Z,22.6700
2023-07-14T09:44:08.699Z,22.6800
2023-07-14T09:45:10.850Z,22.6800
2023-07-14T09:46:12.888Z,22.6800
2023-07-14T09:47:15.127Z,22.6900
2023-07-14T09:48:17.271Z,22.7000
2023-07-14T09:49:19.454Z,22.7000
2023-07-14T09:50:21.515Z,22.7100
2023-07-14T09:51:23.688Z,22.7100
2023-07-14T09:52:25.855Z,22.7100
2023-07-14T09:53:28.034Z,22.7200
2023-07-14T09:54:30.207Z,22.7200
2023-07-14T09:55:32.290Z,22.7300
2023-07-14T09:56:32.298Z,22.7300
2023-07-14T09:57:40.332Z,22.7300
2023-07-14T09:58:36.668Z,22.7200
2023-07-14T09:59:38.815Z,22.7300
2023-07-14T10:00:41.143Z,22.7400
2023-07-14T10:01:43.334Z,22.7500
2023-07-14T10:02:45.389Z,22.7500
2023-07-14T10:03:47.600Z,22.7500
2023-07-14T10:04:49.937Z,22.7500
2023-07-14T10:05:52.087Z,22.7500
2023-07-14T10:06:54.332Z,22.7500
2023-07-14T10:07:56.579Z,22.7600
2023-07-14T10:08:58.804Z,22.7600
2023-07-14T10:10:01.004Z,22.7600
2023-07-14T10:11:03.174Z,22.7600
2023-07-14T10:12:05.361Z,22.7600
2023-07-14T10:13:05.414Z,22.7700
2023-07-14T10:14:07.569Z,22.7700
2023-07-14T10:15:09.780Z,22.7700
2023-07-14T10:16:11.922Z,22.7700
2023-07-14T10:17:14.078Z,22.7700
2023-07-14T10:18:16.397Z,22.7700
2023-07-14T10:19:18.549Z,22.7700
2023-07-14T10:20:20.616Z,22.7700
2023-07-14T10:21:22.796Z,22.7800
2023-07-14T10:22:25.028Z,22.7800
2023-07-14T10:23:27.118Z,22.7900
2023-07-14T10:24:29.310Z,22.8000
2023-07-14T10:25:31.533Z,22.8000
2023-07-14T10:26:33.674Z,22.8000
2023-07-14T10:27:35.774Z,22.8100
2023-07-14T10:28:38.038Z,22.8100
2023-07-14T10:29:40.121Z,22.8200
2023-07-14T10:30:42.376Z,22.8200
2023-07-14T10:31:44.508Z,22.8400
2023-07-14T10:32:46.707Z,22.8400
2023-07-14T10:33:49.005Z,22.8500
2023-07-14T10:34:51.150Z,22.8600
2023-07-14T10:35:53.388Z,22.8700
2023-07-14T10:36:55.598Z,22.8700
2023-07-14T10:37:57.796Z,22.8800
2023-07-14T10:39:00.020Z,22.8900
2023-07-14T10:40:02.236Z,22.8900
2023-07-14T10:41:04.394Z,22.9000
2023-07-14T10:42:06.603Z,22.9100
2023-07-14T10:43:08.699Z,22.9100
2023-07-14T10:44:10.910Z,22.9200
2023-07-14T10:45:13.125Z,22.9200
2023-07-14T10:46:15.379Z,22.9300
2023-07-14T10:47:19.554Z,22.9400
2023-07-14T10:48:19.663Z,22.9300
2023-07-14T10:49:21.832Z,22.9400
2023-07-14T10:50:24.009Z,22.9400
2023-07-14T10:51:26.228Z,22.9500
2023-07-14T10:52:28.293Z,22.9600
2023-07-14T10:53:28.399Z,22.9600
2023-07-14T10:54:30.577Z,22.9600
2023-07-14T10:55:32.760Z,22.9600
2023-07-14T10:56:34.967Z,22.9700
2023-07-14T10:57:37.125Z,22.9800
2023-07-14T10:58:39.301Z,22.9800
2023-07-14T10:59:41.535Z,22.9900
2023-07-14T11:00:43.670Z,22.9900
2023-07-14T11:01:45.906Z,22.9900
2023-07-14T11:02:47.996Z,23.0000
2023-07-14T11:03:50.124Z,23.0000
2023-07-14T11:04:52.252Z,23.0000
2023-07-14T11:05:54.371Z,23.0100
2023-07-14T11:06:58.372Z,23.0200
2023-07-14T11:07:58.746Z,23.0100
2023-07-14T11:09:00.951Z,23.0200
2023-07-14T11:10:03.150Z,23.0200
2023-07-14T11:11:05.341Z,23.0300
2023-07-14T11:12:07.578Z,23.0300
2023-07-14T11:13:09.684Z,23.0400
2023-07-14T11:14:11.867Z,23.0500
2023-07-14T11:15:14.064Z,23.0500
2023-07-14T11:16:16.253Z,23.0500
2023-07-14T11:17:18.544Z,23.0500
2023-07-14T11:18:20.622Z,23.0600
2023-07-14T11:19:23.594Z,23.0600
2023-07-14T11:20:24.999Z,23.0400
2023-07-14T11:21:27.187Z,23.0500
2023-07-14T11:22:27.318Z,23.0600
2023-07-14T11:23:29.503Z,23.0600
2023-07-14T11:24:31.749Z,23.0700
2023-07-14T11:25:33.976Z,23.0700
2023-07-14T11:26:36.220Z,23.0700
2023-07-14T11:27:38.581Z,23.0800
2023-07-14T11:28:40.692Z,23.0800
2023-07-14T11:29:42.895Z,23.0900
2023-07-14T11:30:45.161Z,23.0900
2023-07-14T11:31:47.358Z,23.1000
2023-07-14T11:32:49.563Z,23.1000
2023-07-14T11:33:51.690Z,23.1000
2023-07-14T11:34:53.842Z,23.1000
2023-07-14T11:35:55.977Z,23.1100
2023-07-14T11:36:58.089Z,23.1100
2023-07-14T11:38:00.216Z,23.1200
2023-07-14T11:39:02.306Z,23.1200
2023-07-14T11:40:04.428Z,23.1200
2023-07-14T11:41:06.549Z,23.1300
2023-07-14T11:42:08.682Z,23.1300
2023-07-14T11:43:10.848Z,23.1300
2023-07-14T11:44:12.956Z,23.1300
2023-07-14T11:45:15.084Z,23.1400
2023-07-14T11:46:17.300Z,23.1500
2023-07-14T11:47:19.323Z,23.1500
2023-07-14T11:48:21.505Z,23.1600
2023-07-14T11:49:23.675Z,23.1700
2023-07-14T11:50:40.750Z,23.1800
2023-07-14T11:51:27.870Z,23.1700
2023-07-14T11:52:30.032Z,23.1800
2023-07-14T11:53:32.181Z,23.1800
2023-07-14T11:54:34.262Z,23.1900
2023-07-14T11:55:36.356Z,23.1900
2023-07-14T11:56:38.489Z,23.2000
2023-07-14T11:57:40.668Z,23.2000
2023-07-14T11:58:42.777Z,23.2100
2023-07-14T11:59:44.833Z,23.2100
2023-07-14T12:00:46.945Z,23.2200
2023-07-14T12:01:47.064Z,23.2200
2023-07-14T12:02:51.086Z,23.2200
2023-07-14T12:03:51.220Z,23.2200
2023-07-14T12:04:53.340Z,23.2200
2023-07-14T12:05:55.367Z,23.2300
2023-07-14T12:06:57.497Z,23.2300
2023-07-14T12:07:59.624Z,23.2300
2023-07-14T12:09:01.747Z,23.2300
2023-07-14T12:10:03.849Z,23.2400
2023-07-14T12:11:05.984Z,23.2400
2023-07-14T12:12:08.114Z,23.2400
2023-07-14T12:13:10.200Z,23.2400
2023-07-14T12:14:12.301Z,23.2500
2023-07-14T12:15:14.302Z,23.2600
2023-07-14T12:16:16.439Z,23.2600
2023-07-14T12:17:18.482Z,23.2600
2023-07-14T12:18:18.375Z,23.2600
2023-07-14T12:19:20.508Z,23.2600
2023-07-14T12:20:22.618Z,23.2700
2023-07-14T12:21:24.748Z,23.2700
2023-07-14T12:22:26.902Z,23.2700
2023-07-14T12:23:28.978Z,23.2700
2023-07-14T12:24:31.113Z,23.2800
2023-07-14T12:25:33.188Z,23.2800
2023-07-14T12:26:35.301Z,23.2800
2023-07-14T12:27:37.415Z,23.2800
2023-07-14T12:28:37.383Z,23.2800
2023-07-14T12:29:56.093Z,23.2800
2023-07-14T12:30:41.573Z,23.2600
2023-07-14T12:31:43.736Z,23.2700
2023-07-14T12:32:45.862Z,23.2800
2023-07-14T12:33:47.944Z,23.2800